Time;durP1;ratioP1;P1;durP2;ratioP2;P2;SDS_P1;SDS_P2;PMS_P1;PMS_P2;Temp;Humidity;BMP_temperature;BMP_pressure;BME280_temperature;BME280_humidity;BME280_pressure;Samples;Min_cycle;Max_cycle;Signal;HPM_P1;HPM_P2
2022/05/14 00:01:23;;;;;;;6.15;3.47;;;;;;;;;;5032976;28;20017;-37
2022/05/14 00:03:48;;;;;;;6.22;3.35;;;;;;;;;;5033186;28;20353;-37
2022/05/14 00:06:18;;;;;;;6.20;3.25;;;;;;;;;;5030857;28;20076;-37
2022/05/14 00:08:44;;;;;;;5.93;3.55;;;;;;;;;;5031441;28;20100;-37
2022/05/14 00:13:54;;;;;;;4.82;3.22;;;;;;;;;;5033088;28;20051;-37
2022/05/14 00:16:21;;;;;;;3.53;3.13;;;;;;;;;;5031698;28;20477;-37
2022/05/14 00:18:46;;;;;;;6.55;3.40;;;;;;;;;;5031467;28;20027;-37
2022/05/14 00:21:12;;;;;;;7.10;3.35;;;;;;;;;;5031577;28;20025;-38
2022/05/14 00:23:38;;;;;;;5.07;3.42;;;;;;;;;;5032726;28;20018;-38
2022/05/14 00:26:03;;;;;;;6.10;3.80;;;;;;;;;;5032569;28;20062;-37
2022/05/14 00:28:29;;;;;;;5.28;3.00;;;;;;;;;;5031502;28;20133;-37
2022/05/14 00:30:54;;;;;;;9.77;3.97;;;;;;;;;;5032734;28;20026;-39
2022/05/14 00:33:19;;;;;;;6.40;3.45;;;;;;;;;;5032713;28;20060;-37
2022/05/14 00:35:45;;;;;;;6.65;4.00;;;;;;;;;;5031428;28;20461;-37
2022/05/14 00:38:10;;;;;;;4.35;3.70;;;;;;;;;;5031584;28;20021;-37
2022/05/14 00:40:37;;;;;;;8.63;3.90;;;;;;;;;;5031273;28;20021;-37
2022/05/14 00:43:03;;;;;;;7.80;4.15;;;;;;;;;;5032675;28;20030;-37
2022/05/14 00:45:30;;;;;;;5.88;3.90;;;;;;;;;;5031403;28;20101;-37
2022/05/14 00:47:57;;;;;;;6.82;3.72;;;;;;;;;;5032396;28;20033;-37
2022/05/14 00:50:26;;;;;;;6.80;3.83;;;;;;;;;;5032549;28;20053;-37
2022/05/14 00:52:58;;;;;;;5.65;3.65;;;;;;;;;;5032415;28;20128;-37
2022/05/14 00:55:25;;;;;;;6.75;4.10;;;;;;;;;;5032232;28;20029;-38
2022/05/14 00:57:50;;;;;;;5.82;3.75;;;;;;;;;;5032633;28;20029;-37
2022/05/14 01:00:17;;;;;;;9.93;3.78;;;;;;;;;;5032413;28;20141;-37
2022/05/14 01:02:43;;;;;;;6.50;4.05;;;;;;;;;;5032375;28;20033;-37
2022/05/14 01:05:09;;;;;;;5.35;3.70;;;;;;;;;;5032514;28;20038;-37
2022/05/14 01:07:37;;;;;;;5.80;3.72;;;;;;;;;;5030678;28;20080;-37
2022/05/14 01:10:04;;;;;;;6.72;3.75;;;;;;;;;;5031009;28;20026;-37
2022/05/14 01:12:30;;;;;;;8.30;3.97;;;;;;;;;;5032383;28;20210;-37
2022/05/14 01:15:06;;;;;;;5.90;4.25;;;;;;;;;;5032464;28;20021;-38
2022/05/14 01:17:31;;;;;;;6.13;4.30;;;;;;;;;;5035098;28;20029;-37
2022/05/14 01:19:56;;;;;;;6.85;4.10;;;;;;;;;;5036029;28;20429;-37
2022/05/14 01:22:48;;;;;;;9.93;4.30;;;;;;;;;;5034619;28;20075;-38
2022/05/14 01:28:18;;;;;;;6.30;4.05;;;;;;;;;;5035801;28;20099;-37
2022/05/14 01:30:46;;;;;;;12.88;4.38;;;;;;;;;;5035742;28;20066;-38
2022/05/14 01:33:11;;;;;;;5.68;4.65;;;;;;;;;;5034677;28;20433;-37
2022/05/14 01:35:38;;;;;;;5.63;4.22;;;;;;;;;;5034655;28;20108;-37
2022/05/14 01:38:03;;;;;;;6.07;4.18;;;;;;;;;;5034827;28;20053;-37
2022/05/14 01:40:29;;;;;;;14.27;5.13;;;;;;;;;;5035764;28;20064;-38
2022/05/14 01:42:55;;;;;;;7.03;4.93;;;;;;;;;;5034158;28;20438;-38
2022/05/14 01:45:20;;;;;;;7.30;4.53;;;;;;;;;;5033976;28;20021;-37
2022/05/14 01:47:46;;;;;;;7.00;4.85;;;;;;;;;;5034489;28;20053;-37
2022/05/14 01:50:11;;;;;;;6.60;4.70;;;;;;;;;;5036036;28;20416;-37
2022/05/14 01:52:36;;;;;;;7.10;4.93;;;;;;;;;;5035608;28;20461;-37
2022/05/14 01:55:02;;;;;;;6.20;4.30;;;;;;;;;;5034223;28;20095;-38
2022/05/14 01:57:27;;;;;;;8.27;4.80;;;;;;;;;;5035216;28;20013;-37
2022/05/14 01:59:53;;;;;;;7.68;4.18;;;;;;;;;;5034023;28;20120;-39
2022/05/14 02:02:18;;;;;;;8.23;4.68;;;;;;;;;;5033989;28;20013;-37
2022/05/14 02:04:43;;;;;;;9.75;4.20;;;;;;;;;;5035177;28;20029;-38
2022/05/14 02:07:09;;;;;;;6.63;4.72;;;;;;;;;;5035397;28;20041;-38
2022/05/14 02:09:34;;;;;;;9.27;5.13;;;;;;;;;;5033885;28;20385;-37
2022/05/14 02:12:01;;;;;;;8.90;5.32;;;;;;;;;;5033887;28;20067;-37
2022/05/14 02:14:27;;;;;;;8.63;4.40;;;;;;;;;;5035327;28;20392;-37
2022/05/14 02:16:52;;;;;;;7.30;5.30;;;;;;;;;;5034933;28;20118;-37
2022/05/14 02:19:17;;;;;;;7.03;5.07;;;;;;;;;;5035201;28;20031;-37
2022/05/14 02:21:43;;;;;;;6.97;4.63;;;;;;;;;;5033725;28;20021;-37
2022/05/14 02:24:08;;;;;;;7.07;4.80;;;;;;;;;;5034974;28;20353;-37
2022/05/14 02:26:34;;;;;;;6.13;5.15;;;;;;;;;;5033590;28;20075;-37
2022/05/14 02:28:59;;;;;;;7.13;4.93;;;;;;;;;;5034073;28;20441;-37
2022/05/14 02:31:24;;;;;;;7.57;5.07;;;;;;;;;;5034614;28;20033;-37
2022/05/14 02:33:50;;;;;;;7.78;5.30;;;;;;;;;;5034940;28;20101;-37
2022/05/14 02:36:16;;;;;;;7.07;5.30;;;;;;;;;;5033426;28;20425;-37
2022/05/14 02:38:42;;;;;;;6.30;4.78;;;;;;;;;;5033467;28;20099;-37
2022/05/14 02:41:08;;;;;;;12.10;5.60;;;;;;;;;;5033420;28;20525;-37
2022/05/14 02:43:34;;;;;;;9.55;5.22;;;;;;;;;;5034628;28;20103;-37
2022/05/14 02:46:00;;;;;;;7.00;5.32;;;;;;;;;;5034257;28;20025;-37
2022/05/14 02:48:26;;;;;;;11.85;5.85;;;;;;;;;;5032994;28;20395;-38
2022/05/14 02:50:51;;;;;;;7.55;5.18;;;;;;;;;;5033321;28;20109;-37
2022/05/14 02:53:17;;;;;;;6.50;5.30;;;;;;;;;;5034452;28;20420;-37
2022/05/14 02:55:42;;;;;;;7.00;5.40;;;;;;;;;;5032905;28;20026;-37
2022/05/14 02:58:08;;;;;;;7.85;5.57;;;;;;;;;;5034279;28;20018;-38
2022/05/14 03:00:33;;;;;;;8.20;5.53;;;;;;;;;;5032798;28;20056;-37
2022/05/14 03:02:59;;;;;;;8.27;5.05;;;;;;;;;;5034169;28;20025;-37
2022/05/14 03:05:24;;;;;;;7.85;5.43;;;;;;;;;;5032598;28;20073;-38
2022/05/14 03:07:50;;;;;;;11.95;5.63;;;;;;;;;;5034059;28;20499;-37
2022/05/14 03:10:15;;;;;;;8.23;5.50;;;;;;;;;;5034258;28;20461;-37
2022/05/14 03:12:40;;;;;;;13.13;5.53;;;;;;;;;;5032711;28;20017;-37
2022/05/14 03:15:07;;;;;;;8.57;5.93;;;;;;;;;;5032502;28;20024;-38
2022/05/14 03:17:34;;;;;;;8.35;5.35;;;;;;;;;;5033728;28;20049;-37
2022/05/14 03:20:06;;;;;;;9.45;5.53;;;;;;;;;;5033676;28;20384;-37
2022/05/14 03:22:32;;;;;;;6.97;5.63;;;;;;;;;;5034195;28;20142;-37
2022/05/14 03:24:57;;;;;;;7.78;5.93;;;;;;;;;;5033811;28;20021;-37
2022/05/14 03:27:23;;;;;;;10.43;5.68;;;;;;;;;;5032289;28;20144;-37
2022/05/14 03:29:48;;;;;;;10.32;6.68;;;;;;;;;;5032145;28;20107;-38
2022/05/14 03:32:13;;;;;;;10.30;6.10;;;;;;;;;;5032213;28;20189;-37
2022/05/14 03:34:39;;;;;;;8.15;6.03;;;;;;;;;;5032352;28;20025;-37
2022/05/14 03:37:04;;;;;;;8.73;6.05;;;;;;;;;;5032253;28;20025;-37
2022/05/14 03:39:29;;;;;;;8.07;5.75;;;;;;;;;;5032226;28;20029;-38
2022/05/14 03:41:55;;;;;;;7.00;6.28;;;;;;;;;;5033570;28;20021;-37
2022/05/14 03:44:20;;;;;;;8.55;6.20;;;;;;;;;;5031872;28;20013;-38
2022/05/14 03:46:46;;;;;;;9.35;5.95;;;;;;;;;;5031599;28;20388;-37
2022/05/14 03:49:12;;;;;;;6.82;5.60;;;;;;;;;;5033594;28;20021;-37
2022/05/14 03:51:37;;;;;;;6.55;5.68;;;;;;;;;;5032542;28;20358;-38
2022/05/14 03:54:04;;;;;;;16.85;6.28;;;;;;;;;;5032439;28;20047;-38
2022/05/14 03:56:30;;;;;;;11.32;6.45;;;;;;;;;;5033144;28;20025;-37
2022/05/14 03:58:55;;;;;;;7.88;5.63;;;;;;;;;;5033071;28;20018;-37
2022/05/14 04:01:21;;;;;;;9.85;5.68;;;;;;;;;;5032919;28;20096;-37
2022/05/14 04:03:46;;;;;;;10.23;5.75;;;;;;;;;;5031698;28;20383;-37
2022/05/14 04:06:11;;;;;;;7.03;5.13;;;;;;;;;;5032892;28;20417;-37
2022/05/14 04:08:37;;;;;;;9.38;5.53;;;;;;;;;;5032750;28;20120;-37
2022/05/14 04:11:04;;;;;;;8.48;5.57;;;;;;;;;;5031544;28;20049;-37
2022/05/14 04:13:29;;;;;;;9.00;5.50;;;;;;;;;;5033044;28;20025;-37
2022/05/14 04:15:55;;;;;;;5.05;4.55;;;;;;;;;;5032682;28;20095;-37
2022/05/14 04:18:24;;;;;;;7.63;4.93;;;;;;;;;;5032780;28;20037;-37
2022/05/14 04:20:51;;;;;;;9.93;5.70;;;;;;;;;;5032633;28;20370;-37
2022/05/14 04:23:16;;;;;;;11.48;6.32;;;;;;;;;;5031657;28;20132;-37
2022/05/14 04:25:41;;;;;;;11.77;6.53;;;;;;;;;;5032731;28;20029;-37
2022/05/14 04:28:07;;;;;;;11.27;7.28;;;;;;;;;;5031488;28;20075;-37
2022/05/14 04:30:32;;;;;;;12.90;7.40;;;;;;;;;;5031193;28;20018;-37
2022/05/14 04:32:57;;;;;;;7.47;5.72;;;;;;;;;;5032955;28;20025;-37
2022/05/14 04:35:23;;;;;;;7.90;6.50;;;;;;;;;;5033138;28;20033;-38
2022/05/14 04:37:48;;;;;;;7.13;5.75;;;;;;;;;;5031519;28;20021;-37
2022/05/14 04:40:14;;;;;;;9.20;6.18;;;;;;;;;;5031571;28;20112;-37
2022/05/14 04:42:40;;;;;;;7.95;5.50;;;;;;;;;;5031436;28;20031;-38
2022/05/14 04:45:06;;;;;;;7.15;5.10;;;;;;;;;;5032551;28;20547;-37
2022/05/14 04:47:31;;;;;;;6.97;4.78;;;;;;;;;;5031226;28;20472;-37
2022/05/14 04:49:56;;;;;;;6.88;4.78;;;;;;;;;;5032703;28;20020;-37
2022/05/14 04:52:22;;;;;;;6.30;4.40;;;;;;;;;;5034277;28;20067;-37
2022/05/14 04:54:47;;;;;;;7.97;4.90;;;;;;;;;;5036487;28;20048;-37
2022/05/14 04:57:13;;;;;;;6.68;4.50;;;;;;;;;;5036626;28;20100;-38
2022/05/14 04:59:38;;;;;;;9.70;4.95;;;;;;;;;;5035257;28;20022;-37
2022/05/14 05:04:48;;;;;;;7.55;5.18;;;;;;;;;;5036294;28;20032;-37
2022/05/14 05:07:13;;;;;;;9.98;4.75;;;;;;;;;;5036142;28;20905;-37
2022/05/14 05:09:38;;;;;;;7.78;4.03;;;;;;;;;;5036330;28;20022;-37
2022/05/14 05:12:04;;;;;;;6.20;4.68;;;;;;;;;;5035048;28;20116;-37
2022/05/14 05:14:30;;;;;;;6.32;4.57;;;;;;;;;;5034615;28;20029;-37
2022/05/14 05:16:55;;;;;;;6.05;4.30;;;;;;;;;;5035093;28;20029;-37
2022/05/14 05:19:20;;;;;;;9.63;4.32;;;;;;;;;;5034906;28;20116;-37
2022/05/14 05:21:46;;;;;;;6.97;4.43;;;;;;;;;;5035889;28;20051;-38
2022/05/14 05:24:12;;;;;;;4.88;3.97;;;;;;;;;;5035939;28;20472;-37
2022/05/14 05:26:37;;;;;;;6.50;5.00;;;;;;;;;;5035966;28;20111;-37
2022/05/14 05:29:03;;;;;;;7.85;3.97;;;;;;;;;;5034545;28;20056;-38
2022/05/14 05:31:29;;;;;;;6.97;4.47;;;;;;;;;;5034825;28;20049;-37
2022/05/14 05:33:54;;;;;;;4.95;4.00;;;;;;;;;;5034651;28;20472;-37
2022/05/14 05:36:19;;;;;;;7.00;3.15;;;;;;;;;;5035773;28;20029;-38
2022/05/14 05:38:45;;;;;;;9.90;4.07;;;;;;;;;;5034503;28;20028;-37
2022/05/14 05:41:10;;;;;;;5.47;3.65;;;;;;;;;;5034621;28;20022;-37
2022/05/14 05:43:36;;;;;;;4.95;3.90;;;;;;;;;;5034249;28;20120;-38
2022/05/14 05:46:01;;;;;;;6.53;4.40;;;;;;;;;;5035406;28;20021;-38
2022/05/14 05:48:26;;;;;;;11.88;3.78;;;;;;;;;;5035537;28;20029;-37
2022/05/14 05:50:53;;;;;;;7.82;3.47;;;;;;;;;;5035862;28;20084;-38
2022/05/14 05:53:20;;;;;;;5.43;3.03;;;;;;;;;;5034315;28;20076;-37
2022/05/14 05:58:31;;;;;;;5.40;2.95;;;;;;;;;;5035218;28;20059;-38
2022/05/14 06:00:56;;;;;;;3.88;3.20;;;;;;;;;;5035735;28;20021;-37
2022/05/14 06:03:22;;;;;;;7.97;3.83;;;;;;;;;;5034299;28;20029;-37
2022/05/14 06:05:47;;;;;;;6.45;3.53;;;;;;;;;;5035196;28;20057;-37
2022/05/14 06:08:15;;;;;;;7.00;3.90;;;;;;;;;;5033836;28;20091;-37
2022/05/14 06:10:41;;;;;;;10.70;3.80;;;;;;;;;;5035113;28;20029;-37
2022/05/14 06:13:08;;;;;;;6.82;3.42;;;;;;;;;;5034875;28;20029;-36
2022/05/14 06:15:34;;;;;;;5.05;3.30;;;;;;;;;;5035238;28;20030;-36
2022/05/14 06:18:00;;;;;;;9.90;3.85;;;;;;;;;;5035056;28;20425;-37
2022/05/14 06:20:25;;;;;;;5.80;4.07;;;;;;;;;;5035040;28;20427;-38
2022/05/14 06:22:50;;;;;;;4.32;3.33;;;;;;;;;;5033691;28;20025;-37
2022/05/14 06:25:16;;;;;;;4.43;3.57;;;;;;;;;;5034972;28;20080;-38
2022/05/14 06:27:42;;;;;;;8.50;3.85;;;;;;;;;;5034521;28;20333;-37
2022/05/14 06:30:08;;;;;;;5.72;4.53;;;;;;;;;;5035022;28;20479;-37
2022/05/14 06:32:34;;;;;;;9.55;3.35;;;;;;;;;;5034746;28;20022;-38
2022/05/14 06:34:59;;;;;;;5.38;2.92;;;;;;;;;;5034913;28;20465;-38
2022/05/14 06:37:24;;;;;;;10.70;4.50;;;;;;;;;;5033520;28;20468;-39
2022/05/14 06:39:49;;;;;;;4.10;3.35;;;;;;;;;;5034482;28;20243;-38
2022/05/14 06:42:15;;;;;;;3.90;3.07;;;;;;;;;;5034689;28;20519;-39
2022/05/14 06:44:40;;;;;;;4.07;3.15;;;;;;;;;;5033094;28;20243;-38
2022/05/14 06:47:06;;;;;;;4.43;3.38;;;;;;;;;;5033055;28;20040;-38
2022/05/14 06:49:31;;;;;;;4.00;3.33;;;;;;;;;;5034269;28;20032;-39
2022/05/14 06:51:57;;;;;;;6.22;3.55;;;;;;;;;;5034487;28;20408;-38
2022/05/14 06:54:23;;;;;;;6.60;2.95;;;;;;;;;;5032997;28;20025;-38
2022/05/14 06:56:48;;;;;;;6.32;3.28;;;;;;;;;;5034119;28;20021;-38
2022/05/14 06:59:14;;;;;;;5.45;3.95;;;;;;;;;;5032673;28;20540;-38
2022/05/14 07:01:40;;;;;;;5.00;2.92;;;;;;;;;;5033094;28;20038;-38
2022/05/14 07:06:52;;;;;;;3.90;2.70;;;;;;;;;;5033884;28;20052;-38
2022/05/14 07:09:19;;;;;;;6.15;2.75;;;;;;;;;;5033925;28;20108;-42
2022/05/14 07:11:46;;;;;;;5.53;2.60;;;;;;;;;;5033921;28;20473;-38
2022/05/14 07:14:12;;;;;;;3.83;2.30;;;;;;;;;;5033766;28;20112;-38
2022/05/14 07:16:38;;;;;;;3.60;2.78;;;;;;;;;;5032798;28;20108;-39
2022/05/14 07:19:06;;;;;;;16.17;2.88;;;;;;;;;;5033993;28;20540;-38
2022/05/14 07:21:31;;;;;;;6.43;2.70;;;;;;;;;;5033927;28;20025;-38
2022/05/14 07:23:57;;;;;;;6.13;2.75;;;;;;;;;;5033611;28;20510;-39
2022/05/14 07:26:22;;;;;;;4.55;2.53;;;;;;;;;;5033623;28;20013;-38
2022/05/14 07:28:48;;;;;;;4.63;2.40;;;;;;;;;;5032507;28;20079;-38
2022/05/14 07:31:14;;;;;;;7.50;2.60;;;;;;;;;;5033653;28;20037;-38
2022/05/14 07:33:39;;;;;;;4.65;2.25;;;;;;;;;;5034095;28;20036;-38
2022/05/14 07:36:07;;;;;;;5.37;2.30;;;;;;;;;;5033377;28;20036;-39
2022/05/14 07:38:34;;;;;;;4.47;2.25;;;;;;;;;;5033582;28;20247;-38
2022/05/14 07:41:01;;;;;;;11.17;2.30;;;;;;;;;;5033831;28;20033;-38
2022/05/14 07:43:30;;;;;;;2.67;1.77;;;;;;;;;;5032196;28;20037;-38
2022/05/14 07:45:57;;;;;;;6.85;2.35;;;;;;;;;;5033299;28;20027;-38
2022/05/14 07:48:27;;;;;;;5.38;2.33;;;;;;;;;;5033152;28;20579;-40
2022/05/14 07:50:52;;;;;;;4.60;2.33;;;;;;;;;;5033250;28;20023;-39
2022/05/14 07:53:18;;;;;;;5.25;2.50;;;;;;;;;;5032954;28;20100;-38
2022/05/14 07:55:43;;;;;;;4.00;2.40;;;;;;;;;;5031775;28;20377;-39
2022/05/14 07:58:09;;;;;;;2.33;2.10;;;;;;;;;;5031662;28;20029;-38
2022/05/14 08:00:34;;;;;;;3.63;2.20;;;;;;;;;;5033287;28;20029;-38
2022/05/14 08:03:00;;;;;;;7.73;2.73;;;;;;;;;;5033205;28;20468;-38
2022/05/14 08:05:26;;;;;;;4.15;2.38;;;;;;;;;;5032836;28;20302;-38
2022/05/14 08:07:51;;;;;;;6.25;2.22;;;;;;;;;;5032986;28;20103;-39
2022/05/14 08:10:16;;;;;;;5.55;1.90;;;;;;;;;;5031546;28;20028;-38
2022/05/14 08:12:46;;;;;;;4.45;1.80;;;;;;;;;;5032919;28;20021;-39
2022/05/14 08:15:12;;;;;;;10.90;2.38;;;;;;;;;;5031805;28;20460;-39
2022/05/14 08:17:38;;;;;;;5.57;2.28;;;;;;;;;;5031662;28;20428;-38
2022/05/14 08:20:04;;;;;;;6.70;2.23;;;;;;;;;;5032778;28;20059;-38
2022/05/14 08:25:13;;;;;;;5.50;2.25;;;;;;;;;;5032507;28;20033;-38
2022/05/14 08:27:47;;;;;;;4.70;2.20;;;;;;;;;;5032308;28;20469;-38
2022/05/14 08:30:18;;;;;;;5.35;2.72;;;;;;;;;;5032742;28;20017;-38
2022/05/14 08:32:44;;;;;;;4.32;2.55;;;;;;;;;;5032578;28;20087;-39
2022/05/14 08:35:09;;;;;;;7.30;2.70;;;;;;;;;;5032504;28;20468;-39
2022/05/14 08:37:35;;;;;;;6.05;2.60;;;;;;;;;;5032780;28;20234;-38
2022/05/14 08:40:08;;;;;;;6.90;2.97;;;;;;;;;;5032746;28;20542;-39
2022/05/14 08:42:33;;;;;;;8.43;2.65;;;;;;;;;;5032561;28;20030;-39
2022/05/14 08:44:59;;;;;;;7.68;2.30;;;;;;;;;;5032445;28;20533;-38
2022/05/14 08:47:24;;;;;;;11.27;4.65;;;;;;;;;;5031095;28;20033;-38
2022/05/14 08:49:53;;;;;;;8.43;4.28;;;;;;;;;;5032307;28;20357;-38
2022/05/14 08:52:20;;;;;;;9.63;3.58;;;;;;;;;;5032495;28;20021;-38
2022/05/14 08:54:45;;;;;;;8.90;3.67;;;;;;;;;;5031237;28;20396;-38
2022/05/14 08:57:29;;;;;;;4.80;3.05;;;;;;;;;;5031061;28;20026;-38
2022/05/14 08:59:55;;;;;;;6.38;2.25;;;;;;;;;;5030974;28;20540;-38
2022/05/14 09:02:24;;;;;;;8.52;2.30;;;;;;;;;;5030788;28;20022;-38
2022/05/14 09:04:54;;;;;;;6.95;1.60;;;;;;;;;;5032363;28;20022;-38
2022/05/14 09:07:20;;;;;;;6.30;1.50;;;;;;;;;;5030826;28;20033;-38
2022/05/14 09:09:49;;;;;;;3.95;1.15;;;;;;;;;;5032365;28;20024;-38
2022/05/14 09:12:16;;;;;;;8.65;1.48;;;;;;;;;;5032299;28;20103;-38
2022/05/14 09:14:42;;;;;;;8.05;1.52;;;;;;;;;;5032305;28;20025;-38
2022/05/14 09:17:21;;;;;;;3.10;1.20;;;;;;;;;;5032135;28;20376;-38
2022/05/14 09:19:47;;;;;;;5.28;1.15;;;;;;;;;;5032221;28;20048;-38
2022/05/14 09:22:18;;;;;;;7.13;1.38;;;;;;;;;;5032078;28;20026;-38
2022/05/14 09:24:46;;;;;;;5.13;1.40;;;;;;;;;;5030983;28;20018;-38
2022/05/14 09:27:20;;;;;;;7.15;1.75;;;;;;;;;;5032099;28;20091;-38
2022/05/14 09:29:47;;;;;;;4.57;1.25;;;;;;;;;;5032062;28;20100;-38
2022/05/14 09:32:21;;;;;;;5.93;1.00;;;;;;;;;;5032270;28;20030;-38
2022/05/14 09:34:47;;;;;;;4.95;1.65;;;;;;;;;;5032053;28;20080;-38
2022/05/14 09:37:19;;;;;;;5.53;2.42;;;;;;;;;;5032536;28;20021;-38
2022/05/14 09:39:58;;;;;;;28.50;2.03;;;;;;;;;;5035522;28;20071;-38
2022/05/14 09:42:30;;;;;;;6.82;1.15;;;;;;;;;;5035907;28;20079;-38
2022/05/14 09:44:57;;;;;;;5.72;1.20;;;;;;;;;;5034479;28;20503;-38
2022/05/14 09:47:27;;;;;;;11.30;3.33;;;;;;;;;;5035502;28;20048;-38
2022/05/14 09:50:00;;;;;;;10.85;2.80;;;;;;;;;;5034297;28;20116;-38
2022/05/14 09:52:29;;;;;;;10.68;2.30;;;;;;;;;;5035549;28;20030;-38
2022/05/14 09:54:56;;;;;;;11.00;2.08;;;;;;;;;;5035527;28;20076;-41
2022/05/14 09:57:27;;;;;;;8.35;1.52;;;;;;;;;;5035307;28;20516;-38
2022/05/14 09:59:52;;;;;;;5.38;1.75;;;;;;;;;;5034200;28;20383;-38
2022/05/14 10:02:17;;;;;;;3.67;1.00;;;;;;;;;;5035456;28;20021;-38
2022/05/14 10:04:52;;;;;;;9.77;1.57;;;;;;;;;;5033840;28;20014;-38
2022/05/14 10:07:47;;;;;;;7.63;3.10;;;;;;;;;;5033736;28;20286;-38
2022/05/14 10:10:12;;;;;;;4.80;1.50;;;;;;;;;;5032992;28;20108;-38
2022/05/14 10:12:41;;;;;;;4.93;1.90;;;;;;;;;;5035204;28;20072;-38
2022/05/14 10:15:06;;;;;;;;;;;;;;;;;;5034277;28;20350;-38
2022/05/14 10:17:50;;;;;;;2.93;1.47;;;;;;;;;;5033670;28;20007;-39
2022/05/14 10:20:25;;;;;;;8.02;1.70;;;;;;;;;;5033978;28;20405;-38
2022/05/14 10:28:49;;;;;;;3.13;1.20;;;;;;;;;;5034710;28;20048;-38
2022/05/14 10:31:18;;;;;;;4.10;1.25;;;;;;;;;;5033466;28;20151;-38
2022/05/14 10:33:43;;;;;;;8.52;1.48;;;;;;;;;;5034817;28;20120;-38
2022/05/14 10:36:33;;;;;;;3.40;1.42;;;;;;;;;;5033513;28;20473;-38
2022/05/14 10:38:58;;;;;;;;;;;;;;;;;;5033896;28;20048;-38
2022/05/14 10:41:38;;;;;;;10.27;3.00;;;;;;;;;;5033515;28;19911;-38
2022/05/14 10:44:17;;;;;;;12.20;3.10;;;;;;;;;;5034460;28;20029;-38
2022/05/14 10:46:43;;;;;;;8.05;1.50;;;;;;;;;;5034342;28;20030;-39
2022/05/14 10:49:09;;;;;;;4.55;1.20;;;;;;;;;;5033644;28;20095;-38
2022/05/14 10:51:37;;;;;;;3.67;1.52;;;;;;;;;;5034488;28;20036;-38
2022/05/14 10:54:03;;;;;;;6.07;1.37;;;;;;;;;;5033129;28;20033;-38
2022/05/14 10:56:33;;;;;;;10.43;2.22;;;;;;;;;;5033121;28;20469;-39
2022/05/14 10:59:01;;;;;;;7.57;1.58;;;;;;;;;;5034292;28;20377;-38
2022/05/14 11:01:29;;;;;;;4.05;1.70;;;;;;;;;;5032856;28;20061;-38
2022/05/14 11:04:01;;;;;;;5.20;1.35;;;;;;;;;;5033170;28;20036;-38
2022/05/14 11:06:31;;;;;;;6.78;1.33;;;;;;;;;;5033969;28;20060;-38
2022/05/14 11:08:56;;;;;;;7.72;1.10;;;;;;;;;;5034107;28;20036;-38
2022/05/14 11:11:25;;;;;;;5.90;1.20;;;;;;;;;;5032938;28;20423;-38
2022/05/14 11:14:02;;;;;;;7.30;2.67;;;;;;;;;;5032718;28;20032;-40
2022/05/14 11:16:45;;;;;;;16.35;2.97;;;;;;;;;;5032771;28;20025;-37
2022/05/14 11:19:12;;;;;;;11.93;2.35;;;;;;;;;;5032654;28;20171;-38
2022/05/14 11:21:39;;;;;;;7.38;1.40;;;;;;;;;;5032610;28;20021;-38
2022/05/14 11:24:05;;;;;;;3.60;1.30;;;;;;;;;;5033838;28;20022;-38
2022/05/14 11:26:30;;;;;;;6.22;1.55;;;;;;;;;;5033518;28;20029;-38
2022/05/14 11:28:58;;;;;;;6.80;1.55;;;;;;;;;;5033787;28;20048;-38
2022/05/14 11:31:25;;;;;;;5.00;1.67;;;;;;;;;;5032464;28;20017;-38
2022/05/14 11:33:52;;;;;;;8.30;2.00;;;;;;;;;;5033915;28;20372;-38
2022/05/14 11:36:20;;;;;;;4.38;1.52;;;;;;;;;;5033605;28;20025;-37
2022/05/14 11:38:47;;;;;;;3.40;1.23;;;;;;;;;;5033551;28;20075;-38
2022/05/14 11:41:14;;;;;;;4.15;1.30;;;;;;;;;;5033394;28;20025;-38
2022/05/14 11:43:49;;;;;;;4.40;1.50;;;;;;;;;;5033524;28;20018;-38
2022/05/14 11:46:29;;;;;;;5.03;1.23;;;;;;;;;;5033356;28;20021;-38
2022/05/14 11:49:01;;;;;;;2.28;1.08;;;;;;;;;;5033295;28;20033;-38
2022/05/14 11:51:36;;;;;;;12.05;3.05;;;;;;;;;;5033265;28;20421;-38
2022/05/14 11:54:09;;;;;;;6.50;2.05;;;;;;;;;;5033409;28;20071;-38
2022/05/14 11:56:52;;;;;;;8.05;1.63;;;;;;;;;;5033370;28;20104;-38
2022/05/14 11:59:18;;;;;;;6.55;1.30;;;;;;;;;;5033056;28;20026;-37
2022/05/14 12:01:45;;;;;;;5.63;1.42;;;;;;;;;;5030970;28;20405;-37
2022/05/14 12:04:14;;;;;;;3.92;1.08;;;;;;;;;;5031621;28;20064;-37
2022/05/14 12:06:40;;;;;;;16.17;2.45;;;;;;;;;;5033315;28;20076;-37
2022/05/14 12:09:24;;;;;;;6.57;1.30;;;;;;;;;;5032982;28;20033;-37
2022/05/14 12:11:56;;;;;;;4.35;1.27;;;;;;;;;;5033321;28;20079;-37
2022/05/14 12:14:27;;;;;;;3.03;1.15;;;;;;;;;;5033020;28;20031;-37
2022/05/14 12:16:54;;;;;;;3.63;1.45;;;;;;;;;;5031703;28;20489;-37
2022/05/14 12:19:19;;;;;;;8.15;1.60;;;;;;;;;;5031823;28;20025;-37
2022/05/14 12:21:50;;;;;;;9.30;2.30;;;;;;;;;;5032868;28;20100;-37
2022/05/14 12:24:17;;;;;;;8.10;2.20;;;;;;;;;;5031563;28;20018;-37
2022/05/14 12:26:43;;;;;;;14.23;2.38;;;;;;;;;;5032763;28;20035;-37
2022/05/14 12:29:13;;;;;;;8.45;1.92;;;;;;;;;;5032612;28;20532;-37
2022/05/14 12:34:34;;;;;;;8.48;1.67;;;;;;;;;;5049979;28;20038;-37
2022/05/14 12:37:01;;;;;;;5.90;1.38;;;;;;;;;;5032696;28;20037;-37
2022/05/14 12:39:28;;;;;;;7.93;1.98;;;;;;;;;;5032697;28;20072;-37
2022/05/14 12:41:56;;;;;;;5.05;1.27;;;;;;;;;;5032415;28;20021;-37
2022/05/14 12:44:29;;;;;;;9.10;2.08;;;;;;;;;;5032712;28;20021;-37
2022/05/14 12:46:56;;;;;;;8.00;1.63;;;;;;;;;;5032582;28;20484;-37
2022/05/14 12:49:24;;;;;;;4.63;1.50;;;;;;;;;;5032613;28;20117;-37
2022/05/14 12:51:51;;;;;;;3.97;1.87;;;;;;;;;;5031202;28;20069;-37
2022/05/14 12:54:18;;;;;;;4.35;1.40;;;;;;;;;;5032331;28;20496;-39
2022/05/14 12:56:43;;;;;;;1.70;1.25;;;;;;;;;;5030988;28;20018;-37
2022/05/14 12:59:09;;;;;;;9.95;1.60;;;;;;;;;;5031397;28;20028;-37
2022/05/14 13:01:34;;;;;;;3.63;1.38;;;;;;;;;;5031281;28;20075;-37
2022/05/14 13:04:02;;;;;;;7.07;1.63;;;;;;;;;;5031186;28;20484;-37
2022/05/14 13:06:29;;;;;;;5.15;1.52;;;;;;;;;;5032317;28;20058;-37
2022/05/14 13:08:57;;;;;;;11.30;1.77;;;;;;;;;;5032129;28;20076;-40
2022/05/14 13:11:26;;;;;;;4.90;1.70;;;;;;;;;;5031282;28;20033;-38
2022/05/14 13:13:54;;;;;;;5.65;1.33;;;;;;;;;;5034648;28;20018;-37
2022/05/14 13:16:24;;;;;;;7.13;1.50;;;;;;;;;;5035062;28;20104;-37
2022/05/14 13:18:58;;;;;;;4.28;1.33;;;;;;;;;;5036367;28;20112;-37
2022/05/14 13:21:25;;;;;;;6.60;1.58;;;;;;;;;;5036034;28;20017;-39
2022/05/14 13:23:57;;;;;;;14.70;2.30;;;;;;;;;;5034602;28;20025;-37
2022/05/14 13:26:25;;;;;;;10.38;1.90;;;;;;;;;;5034892;28;20464;-37
2022/05/14 13:28:50;;;;;;;5.25;1.48;;;;;;;;;;5034676;28;20072;-37
2022/05/14 13:31:23;;;;;;;4.53;1.88;;;;;;;;;;5034779;28;20052;-37
2022/05/14 13:33:56;;;;;;;4.72;1.88;;;;;;;;;;5036116;28;20109;-38
2022/05/14 13:39:09;;;;;;;3.83;1.63;;;;;;;;;;5035926;28;20458;-37
2022/05/14 13:41:41;;;;;;;7.45;1.75;;;;;;;;;;5035815;28;20457;-38
2022/05/14 13:44:14;;;;;;;5.80;2.17;;;;;;;;;;5034507;28;20384;-38
2022/05/14 13:46:43;;;;;;;10.50;2.10;;;;;;;;;;5034109;28;20055;-38
2022/05/14 13:49:19;;;;;;;7.63;1.75;;;;;;;;;;5045413;28;20045;-38
2022/05/14 13:51:50;;;;;;;7.75;2.25;;;;;;;;;;5054333;28;20020;-38
2022/05/14 13:54:27;;;;;;;8.10;1.77;;;;;;;;;;5055523;28;20412;-38
2022/05/14 13:56:58;;;;;;;5.85;1.67;;;;;;;;;;5054043;28;20024;-38
2022/05/14 13:59:31;;;;;;;6.93;1.67;;;;;;;;;;5053909;28;20151;-38
2022/05/14 14:02:23;;;;;;;8.50;1.67;;;;;;;;;;5054225;28;20025;-38
2022/05/14 14:04:53;;;;;;;12.35;2.42;;;;;;;;;;5052917;28;20044;-38
2022/05/14 14:07:18;;;;;;;9.90;1.95;;;;;;;;;;5055130;28;20053;-38
2022/05/14 14:09:45;;;;;;;15.18;2.45;;;;;;;;;;5054864;28;20028;-37
2022/05/14 14:12:11;;;;;;;7.88;2.05;;;;;;;;;;5053991;28;20017;-38
2022/05/14 14:14:36;;;;;;;5.95;1.63;;;;;;;;;;5055056;28;20100;-38
2022/05/14 14:17:02;;;;;;;9.80;2.38;;;;;;;;;;5053828;28;20120;-38
2022/05/14 14:19:27;;;;;;;7.57;1.70;;;;;;;;;;5053686;28;20017;-38
2022/05/14 14:21:56;;;;;;;4.93;1.75;;;;;;;;;;5054938;28;20122;-38
2022/05/14 14:24:21;;;;;;;;;;;;;;;;;;5052666;28;20035;-38
2022/05/14 14:26:49;;;;;;;52.83;4.13;;;;;;;;;;5053796;28;19905;-37
2022/05/14 14:29:15;;;;;;;7.78;1.60;;;;;;;;;;5053542;28;20649;-38
2022/05/14 14:31:40;;;;;;;10.02;2.97;;;;;;;;;;5053484;28;20023;-38
2022/05/14 14:34:06;;;;;;;7.00;2.08;;;;;;;;;;5053519;28;20170;-38
2022/05/14 14:36:32;;;;;;;5.38;1.85;;;;;;;;;;5054734;28;20025;-38
2022/05/14 14:38:57;;;;;;;11.07;2.20;;;;;;;;;;5054390;28;20517;-38
2022/05/14 14:41:23;;;;;;;7.35;2.03;;;;;;;;;;5054511;28;20017;-38
2022/05/14 14:43:49;;;;;;;9.13;1.50;;;;;;;;;;5053304;28;20047;-38
2022/05/14 14:46:15;;;;;;;5.10;1.65;;;;;;;;;;5054420;28;20055;-38
2022/05/14 14:48:40;;;;;;;7.28;1.90;;;;;;;;;;5054216;28;20045;-38
2022/05/14 14:51:07;;;;;;;8.27;1.90;;;;;;;;;;5053171;28;20087;-38
2022/05/14 14:53:33;;;;;;;6.57;1.83;;;;;;;;;;5052973;28;20059;-38
2022/05/14 14:55:58;;;;;;;11.45;1.90;;;;;;;;;;5053233;28;20030;-38
2022/05/14 14:58:24;;;;;;;9.18;1.85;;;;;;;;;;5053030;28;20017;-38
2022/05/14 15:00:50;;;;;;;11.35;2.15;;;;;;;;;;5054254;28;20029;-38
2022/05/14 15:03:22;;;;;;;9.90;2.08;;;;;;;;;;5036501;28;20093;-38
2022/05/14 15:05:49;;;;;;;8.05;3.55;;;;;;;;;;5054080;28;20054;-38
2022/05/14 15:08:16;;;;;;;7.85;1.80;;;;;;;;;;5052459;28;20123;-38
2022/05/14 15:10:42;;;;;;;7.28;1.85;;;;;;;;;;5052982;28;20009;-38
2022/05/14 15:13:09;;;;;;;7.35;1.95;;;;;;;;;;5054047;28;20051;-38